Dades meteomassalio
Diari Summary for Juliol 14, 2017 Units:  Metric    English   Both
« Previous Day
Next Day »
Diari Semanal Mensual Anual Personalitzat
  Maxima: Minima: Mijana:
Temperatura: 33.3 °C 20.2 °C 26.5 °C
Rosada: 16.2 °C 11.4 °C 13.9 °C
Humitat: 65 % 32 % 47 %
Velocitat del vent: 22.5 km/h 0.0 km/h 6 km/h
Racha vent: 22.5 km/h - -
Vent:- - WSW
Pressio: 1018.5 hPa 1013.8 hPa -
Pluja: 0.0 mm    
Historical Graphs
 
 
Tabular Data for Juliol 14, 2017
Time Temperature Dew Point Pressure Wind Wind Speed Wind Gust Humidity Rainfall Rate (Hourly) solar Conditions
00:00 29.2 °C 14.2 °C 1015.8 hPa WSW 3.2 km/h   40 % 0.0 mm 0.0 W/m2 CLR
00:05 29.1 °C 14.1 °C 1016.1 hPa Calm     40 % 0.0 mm 0.0 W/m2 CLR
00:10 29.0 °C 14.1 °C 1016.1 hPa Calm     40 % 0.0 mm 0.0 W/m2 CLR
00:15 28.9 °C 14.3 °C 1016.1 hPa WSW 4.8 km/h   41 % 0.0 mm 0.0 W/m2 CLR
00:20 28.8 °C 14.2 °C 1016.1 hPa WNW 13.0 km/h 13.0 km/h 41 % 0.0 mm 0.0 W/m2 CLR
00:25 28.7 °C 14.1 °C 1016.1 hPa Calm     41 % 0.0 mm 0.0 W/m2 CLR
00:30 28.6 °C 14.1 °C 1016.5 hPa WNW 14.8 km/h 14.8 km/h 41 % 0.0 mm 0.0 W/m2 CLR
00:35 28.5 °C 13.9 °C 1016.5 hPa Calm     41 % 0.0 mm 0.0 W/m2 CLR
00:40 28.4 °C 14.2 °C 1016.5 hPa Calm     42 % 0.0 mm 0.0 W/m2 CLR
00:45 28.3 °C 14.2 °C 1016.5 hPa WSW 1.9 km/h   42 % 0.0 mm 0.0 W/m2 CLR
00:50 28.2 °C 14.1 °C 1016.5 hPa West 14.8 km/h 14.8 km/h 42 % 0.0 mm 0.0 W/m2 CLR
00:55 28.1 °C 14.3 °C 1016.5 hPa WSW 11.1 km/h 11.1 km/h 43 % 0.0 mm 0.0 W/m2 CLR
01:00 27.9 °C 14.2 °C 1016.5 hPa West 13.0 km/h 13.0 km/h 43 % 0.0 mm 0.0 W/m2 CLR
01:05 27.8 °C 14.4 °C 1016.5 hPa West 9.3 km/h 9.3 km/h 44 % 0.0 mm 0.0 W/m2 CLR
01:10 27.6 °C 14.3 °C 1016.5 hPa West 9.7 km/h 9.7 km/h 44 % 0.0 mm 0.0 W/m2 CLR
01:15 27.5 °C 14.2 °C 1016.5 hPa West 6.4 km/h 6.4 km/h 44 % 0.0 mm 0.0 W/m2 CLR
01:20 27.4 °C 14.4 °C 1016.5 hPa Calm     45 % 0.0 mm 0.0 W/m2 CLR
01:25 27.3 °C 14.3 °C 1016.5 hPa WNW 8.0 km/h 8.0 km/h 45 % 0.0 mm 0.0 W/m2 CLR
01:30 27.2 °C 14.6 °C 1016.5 hPa NW 8.0 km/h 8.0 km/h 46 % 0.0 mm 0.0 W/m2 CLR
01:35 26.9 °C 14.3 °C 1016.5 hPa WNW 13.0 km/h 13.0 km/h 46 % 0.0 mm 0.0 W/m2 CLR
01:40 26.8 °C 14.5 °C 1016.8 hPa WNW 18.5 km/h 18.5 km/h 47 % 0.0 mm 0.0 W/m2 CLR
01:45 26.6 °C 14.4 °C 1016.8 hPa Calm     47 % 0.0 mm 0.0 W/m2 CLR
01:50 26.5 °C 14.3 °C 1016.8 hPa WNW 8.0 km/h 8.0 km/h 47 % 0.0 mm 0.0 W/m2 CLR
01:55 26.3 °C 14.4 °C 1016.8 hPa NW 7.4 km/h 7.4 km/h 48 % 0.0 mm 0.0 W/m2 CLR
02:00 26.2 °C 14.3 °C 1016.8 hPa NW 7.4 km/h 7.4 km/h 48 % 0.0 mm 0.0 W/m2 CLR
02:05 26.0 °C 14.4 °C 1016.8 hPa NW 7.4 km/h 7.4 km/h 49 % 0.0 mm 0.0 W/m2 CLR
02:10 25.8 °C 14.3 °C 1016.8 hPa NW 11.1 km/h 11.1 km/h 49 % 0.0 mm 0.0 W/m2 CLR
02:11 25.8 °C 14.3 °C 1016.8 hPa NW 11.1 km/h 11.1 km/h 49 % 0.0 mm 0.0 W/m2 CLR
02:15 25.6 °C 14.4 °C 1016.8 hPa West 5.6 km/h 5.6 km/h 50 % 0.0 mm 0.0 W/m2 CLR
02:21 25.4 °C 14.3 °C 1016.8 hPa Calm     50 % 0.0 mm 0.0 W/m2 CLR
02:26 25.3 °C 15.0 °C 1016.8 hPa Calm     53 % 0.0 mm 0.0 W/m2 CLR
02:31 24.9 °C 14.7 °C 1016.8 hPa NNW 1.6 km/h 1.6 km/h 53 % 0.0 mm 0.0 W/m2 CLR
02:36 24.7 °C 14.7 °C 1016.8 hPa NW 7.4 km/h 7.4 km/h 54 % 0.0 mm 0.0 W/m2 CLR
02:41 24.4 °C 14.8 °C 1016.8 hPa Calm     55 % 0.0 mm 0.0 W/m2 CLR
02:46 24.3 °C 14.1 °C 1016.8 hPa West 5.6 km/h 5.6 km/h 53 % 0.0 mm 0.0 W/m2 CLR
02:51 24.3 °C 13.8 °C 1016.8 hPa West 5.6 km/h 5.6 km/h 52 % 0.0 mm 0.0 W/m2 CLR
02:56 24.3 °C 13.8 °C 1016.8 hPa West 8.0 km/h 8.0 km/h 52 % 0.0 mm 0.0 W/m2 CLR
03:01 24.2 °C 13.4 °C 1016.8 hPa West 7.4 km/h 7.4 km/h 51 % 0.0 mm 0.0 W/m2 CLR
03:06 24.1 °C 13.6 °C 1016.8 hPa WNW 11.1 km/h 11.1 km/h 52 % 0.0 mm 0.0 W/m2 CLR
03:11 24.0 °C 13.6 °C 1016.8 hPa WNW 5.6 km/h   52 % 0.0 mm 0.0 W/m2 CLR
03:16 23.9 °C 13.4 °C 1016.8 hPa West 9.3 km/h 9.3 km/h 52 % 0.0 mm 0.0 W/m2 CLR
03:21 23.8 °C 13.3 °C 1016.8 hPa WNW 5.6 km/h 5.6 km/h 52 % 0.0 mm 0.0 W/m2 CLR
03:26 23.7 °C 13.2 °C 1016.8 hPa West 7.4 km/h 7.4 km/h 52 % 0.0 mm 0.0 W/m2 CLR
03:31 23.6 °C 13.4 °C 1016.8 hPa Calm     53 % 0.0 mm 0.0 W/m2 CLR
03:36 23.4 °C 13.0 °C 1016.8 hPa NW 5.6 km/h 5.6 km/h 52 % 0.0 mm 0.0 W/m2 CLR
03:41 23.4 °C 13.3 °C 1016.8 hPa Calm     53 % 0.0 mm 0.0 W/m2 CLR
03:46 23.3 °C 13.2 °C 1016.8 hPa Calm     53 % 0.0 mm 0.0 W/m2 CLR
03:51 23.2 °C 13.4 °C 1016.8 hPa Calm     54 % 0.0 mm 0.0 W/m2 CLR
03:56 23.1 °C 13.2 °C 1016.8 hPa Calm     54 % 0.0 mm 0.0 W/m2 CLR
04:01 22.9 °C 13.1 °C 1017.2 hPa North 5.6 km/h 5.6 km/h 54 % 0.0 mm 0.0 W/m2 CLR
04:06 22.8 °C 13.3 °C 1016.8 hPa Calm     55 % 0.0 mm 0.0 W/m2 CLR
04:11 22.6 °C 13.4 °C 1016.8 hPa Calm     56 % 0.0 mm 0.0 W/m2 CLR
04:16 22.4 °C 13.5 °C 1016.8 hPa Calm     57 % 0.0 mm 0.0 W/m2 CLR
04:21 22.3 °C 13.3 °C 1016.8 hPa Calm     57 % 0.0 mm 0.0 W/m2 CLR
04:26 22.0 °C 13.3 °C 1016.8 hPa Calm     58 % 0.0 mm 0.0 W/m2 CLR
04:31 21.8 °C 13.4 °C 1016.8 hPa Calm     59 % 0.0 mm 0.0 W/m2 CLR
04:36 21.7 °C 13.3 °C 1016.8 hPa Calm     59 % 0.0 mm 0.0 W/m2 CLR
04:41 21.6 °C 13.4 °C 1017.2 hPa NW 6.4 km/h 6.4 km/h 60 % 0.0 mm 0.0 W/m2 CLR
04:46 21.4 °C 13.3 °C 1016.8 hPa Calm     60 % 0.0 mm 0.0 W/m2 CLR
04:51 21.4 °C 13.3 °C 1016.8 hPa Calm     60 % 0.0 mm 0.0 W/m2 CLR
04:56 21.3 °C 13.2 °C 1016.8 hPa Calm     60 % 0.0 mm 0.0 W/m2 CLR
05:01 21.3 °C 13.2 °C 1016.8 hPa Calm     60 % 0.0 mm 0.0 W/m2 CLR
05:06 21.3 °C 13.2 °C 1016.8 hPa Calm     60 % 0.0 mm 0.0 W/m2 CLR
05:11 21.2 °C 13.4 °C 1017.2 hPa Calm     61 % 0.0 mm 0.0 W/m2 CLR
05:16 21.2 °C 13.3 °C 1017.2 hPa Calm     61 % 0.0 mm 0.0 W/m2 CLR
05:21 21.1 °C 13.3 °C 1017.2 hPa Calm     61 % 0.0 mm 0.0 W/m2 CLR
05:26 21.1 °C 13.2 °C 1017.2 hPa Calm     61 % 0.0 mm 0.0 W/m2 CLR
05:31 21.0 °C 13.2 °C 1017.2 hPa Calm     61 % 0.0 mm 0.0 W/m2 CLR
05:36 21.0 °C 13.4 °C 1017.2 hPa Calm     62 % 0.0 mm 0.0 W/m2 CLR
05:41 20.9 °C 13.3 °C 1017.2 hPa West 4.8 km/h 4.8 km/h 62 % 0.0 mm 0.0 W/m2 CLR
05:46 20.9 °C 13.1 °C 1017.2 hPa Calm     61 % 0.0 mm 0.0 W/m2 CLR
05:51 20.9 °C 13.1 °C 1017.5 hPa Calm     61 % 0.0 mm 0.0 W/m2 CLR
05:56 20.8 °C 13.1 °C 1017.5 hPa West 3.2 km/h 3.2 km/h 61 % 0.0 mm 0.0 W/m2 CLR
06:01 20.8 °C 13.1 °C 1017.5 hPa WNW 9.3 km/h 9.3 km/h 61 % 0.0 mm 0.0 W/m2 CLR
06:06 20.8 °C 13.1 °C 1017.5 hPa Calm     61 % 0.0 mm 0.0 W/m2 CLR
06:11 20.8 °C 13.2 °C 1017.5 hPa Calm     62 % 0.0 mm 0.0 W/m2 CLR
06:16 20.7 °C 13.2 °C 1017.5 hPa Calm     62 % 0.0 mm 0.0 W/m2 CLR
06:21 20.7 °C 13.1 °C 1017.5 hPa Calm     62 % 0.0 mm 0.0 W/m2 CLR
06:26 20.6 °C 13.1 °C 1017.5 hPa Calm     62 % 0.0 mm 0.0 W/m2 CLR
06:31 20.5 °C 13.2 °C 1017.5 hPa Calm     63 % 0.0 mm 0.0 W/m2 OVC
06:36 20.4 °C 13.1 °C 1017.8 hPa Calm     63 % 0.0 mm 0.0 W/m2 OVC
06:41 20.3 °C 13.1 °C 1017.5 hPa Calm     63 % 0.0 mm 0.0 W/m2 OVC
06:46 20.2 °C 13.2 °C 1017.5 hPa Calm     64 % 0.0 mm 5.0 W/m2 OVC
06:51 20.2 °C 13.2 °C 1017.5 hPa Calm     64 % 0.0 mm 11.0 W/m2 BKN
06:56 20.2 °C 13.1 °C 1017.5 hPa Calm     64 % 0.0 mm 14.0 W/m2 BKN
07:01 20.2 °C 13.1 °C 1017.8 hPa Calm     64 % 0.0 mm 21.0 W/m2 BKN
07:06 20.2 °C 13.1 °C 1017.8 hPa Calm     64 % 0.0 mm 28.0 W/m2 BKN
07:11 20.2 °C 13.4 °C 1017.8 hPa Calm     65 % 0.0 mm 33.0 W/m2 BKN
07:12 20.2 °C 13.4 °C 1017.8 hPa Calm     65 % 0.0 mm 33.0 W/m2 BKN
07:17 20.2 °C 13.1 °C 1017.8 hPa Calm     64 % 0.0 mm 39.0 W/m2 BKN
07:22 20.2 °C 13.2 °C 1017.8 hPa Calm     64 % 0.0 mm 46.0 W/m2 SCT
07:27 20.3 °C 13.3 °C 1017.8 hPa Calm     64 % 0.0 mm 56.0 W/m2 SCT
07:32 20.4 °C 13.3 °C 1017.8 hPa Calm     64 % 0.0 mm 67.0 W/m2 FEW
07:37 20.4 °C 13.4 °C 1017.8 hPa Calm     64 % 0.0 mm 77.0 W/m2 FEW
07:42 20.5 °C 13.4 °C 1017.8 hPa Calm     64 % 0.0 mm 84.0 W/m2 FEW
07:47 20.5 °C 13.4 °C 1017.8 hPa Calm     64 % 0.0 mm 90.0 W/m2 FEW
07:52 20.5 °C 13.4 °C 1017.8 hPa Calm     64 % 0.0 mm 76.0 W/m2 FEW
07:57 20.6 °C 13.5 °C 1017.8 hPa NNW 4.8 km/h 4.8 km/h 64 % 0.0 mm 116.0 W/m2 FEW
08:02 20.6 °C 13.1 °C 1017.8 hPa North 11.3 km/h 11.3 km/h 62 % 0.0 mm 88.0 W/m2 CLR
08:07 20.7 °C 13.1 °C 1018.2 hPa NW 11.1 km/h 11.1 km/h 62 % 0.0 mm 142.0 W/m2 CLR
08:12 20.7 °C 13.2 °C 1018.2 hPa Calm     62 % 0.0 mm 111.0 W/m2 CLR
08:17 20.8 °C 13.2 °C 1018.2 hPa WNW 7.4 km/h 7.4 km/h 62 % 0.0 mm 179.0 W/m2 CLR
08:22 20.9 °C 13.3 °C 1018.2 hPa WNW 7.4 km/h 7.4 km/h 62 % 0.0 mm 107.0 W/m2 CLR
08:27 20.9 °C 13.3 °C 1018.2 hPa Calm     62 % 0.0 mm 221.0 W/m2 CLR
08:32 20.9 °C 13.1 °C 1018.2 hPa NW 11.3 km/h 11.3 km/h 61 % 0.0 mm 111.0 W/m2 CLR
08:37 20.9 °C 13.3 °C 1018.2 hPa NNW 14.8 km/h 14.8 km/h 62 % 0.0 mm 141.0 W/m2 CLR
08:42 20.9 °C 13.4 °C 1018.2 hPa NW 14.8 km/h 14.8 km/h 62 % 0.0 mm 271.0 W/m2 CLR
08:47 21.2 °C 13.3 °C 1018.2 hPa NNW 11.1 km/h 11.1 km/h 61 % 0.0 mm 287.0 W/m2 CLR
08:52 21.4 °C 13.6 °C 1018.5 hPa NW 11.1 km/h 11.1 km/h 61 % 0.0 mm 246.0 W/m2 CLR
08:57 21.6 °C 13.5 °C 1018.2 hPa NW 6.4 km/h 6.4 km/h 60 % 0.0 mm 209.0 W/m2 CLR
09:02 21.6 °C 13.5 °C 1018.2 hPa NW 11.1 km/h 11.1 km/h 60 % 0.0 mm 153.0 W/m2 CLR
09:07 21.5 °C 13.4 °C 1018.2 hPa NW 5.6 km/h 5.6 km/h 60 % 0.0 mm 156.0 W/m2 CLR
09:12 21.4 °C 13.3 °C 1018.5 hPa NW 6.4 km/h 6.4 km/h 60 % 0.0 mm 142.0 W/m2 CLR
09:17 21.3 °C 13.4 °C 1018.2 hPa NW 1.9 km/h 1.9 km/h 61 % 0.0 mm 153.0 W/m2 CLR
09:22 21.3 °C 13.4 °C 1018.2 hPa Calm     61 % 0.0 mm 155.0 W/m2 CLR
09:27 21.3 °C 13.4 °C 1018.5 hPa Calm     61 % 0.0 mm 125.0 W/m2 CLR
09:32 21.3 °C 13.4 °C 1018.5 hPa NW 7.4 km/h 7.4 km/h 61 % 0.0 mm 167.0 W/m2 CLR
09:37 21.4 °C 13.6 °C 1018.2 hPa Calm   0.2 km/h 61 % 0.0 mm 452.0 W/m2 CLR
09:42 21.7 °C 13.6 °C 1018.5 hPa NNW 9.3 km/h 9.3 km/h 60 % 0.0 mm 455.0 W/m2 CLR
09:47 22.0 °C 13.9 °C 1018.2 hPa NW 6.4 km/h 6.4 km/h 60 % 0.0 mm 471.0 W/m2 CLR
09:52 22.3 °C 13.9 °C 1018.2 hPa NW 6.4 km/h 6.4 km/h 59 % 0.0 mm 485.0 W/m2 CLR
09:57 22.4 °C 14.1 °C 1018.2 hPa NNW 16.7 km/h 16.7 km/h 59 % 0.0 mm 524.0 W/m2 CLR
10:02 22.7 °C 14.1 °C 1018.2 hPa WNW 7.4 km/h 7.4 km/h 58 % 0.0 mm 469.0 W/m2 CLR
10:07 22.9 °C 13.9 °C 1018.2 hPa NW 9.3 km/h 9.3 km/h 57 % 0.0 mm 563.0 W/m2 CLR
10:12 23.2 °C 13.9 °C 1018.2 hPa WNW 11.1 km/h 11.1 km/h 56 % 0.0 mm 617.0 W/m2 CLR
10:17 23.2 °C 13.9 °C 1018.2 hPa NW 9.3 km/h 9.3 km/h 56 % 0.0 mm 506.0 W/m2 CLR
10:22 23.1 °C 13.5 °C 1018.2 hPa Calm     55 % 0.0 mm 374.0 W/m2 CLR
10:27 23.3 °C 13.8 °C 1018.2 hPa North 9.3 km/h 9.3 km/h 55 % 0.0 mm 654.0 W/m2 CLR
10:32 23.4 °C 13.6 °C 1018.2 hPa NNE 3.7 km/h 3.7 km/h 54 % 0.0 mm 197.0 W/m2 CLR
10:37 23.4 °C 13.8 °C 1018.2 hPa WNW 9.7 km/h 9.7 km/h 55 % 0.0 mm 207.0 W/m2 CLR
10:42 23.2 °C 13.9 °C 1018.2 hPa WNW 11.1 km/h 11.1 km/h 56 % 0.0 mm 297.0 W/m2 CLR
10:47 23.3 °C 14.0 °C 1018.2 hPa NNE 7.4 km/h 7.4 km/h 56 % 0.0 mm 677.0 W/m2 CLR
10:53 23.5 °C 14.2 °C 1018.2 hPa NNW 11.1 km/h 11.1 km/h 56 % 0.0 mm 715.0 W/m2 CLR
10:58 23.6 °C 13.8 °C 1018.2 hPa NNW 11.1 km/h 11.1 km/h 54 % 0.0 mm 297.0 W/m2 CLR
11:03 23.6 °C 13.8 °C 1018.5 hPa NW 9.3 km/h 9.3 km/h 54 % 0.0 mm 257.0 W/m2 CLR
11:05 23.6 °C 13.8 °C 1018.5 hPa NNW 1.9 km/h   54 % 0.0 mm 285.0 W/m2 CLR
11:10 23.8 °C 13.9 °C 1018.2 hPa NW 11.3 km/h 11.3 km/h 54 % 0.0 mm 357.0 W/m2 CLR
11:15 23.9 °C 13.8 °C 1018.5 hPa NW 9.7 km/h 9.7 km/h 53 % 0.0 mm 731.0 W/m2 CLR
11:20 23.8 °C 13.6 °C 1018.2 hPa West 16.7 km/h 16.7 km/h 53 % 0.0 mm 469.0 W/m2 CLR
11:22 23.8 °C 13.6 °C 1018.2 hPa West 9.3 km/h 9.3 km/h 53 % 0.0 mm 814.0 W/m2 CLR
11:27 23.9 °C 14.0 °C 1018.5 hPa WNW 13.0 km/h 13.0 km/h 54 % 0.0 mm 851.0 W/m2 CLR
11:32 24.0 °C 13.6 °C 1018.5 hPa SW 18.5 km/h 18.5 km/h 52 % 0.0 mm 278.0 W/m2 CLR
11:37 23.9 °C 13.7 °C 1018.2 hPa WNW 5.6 km/h 5.6 km/h 53 % 0.0 mm 327.0 W/m2 CLR
11:42 24.0 °C 13.8 °C 1018.5 hPa NW 14.5 km/h 14.5 km/h 53 % 0.0 mm 199.0 W/m2 CLR
11:47 24.2 °C 13.7 °C 1018.5 hPa WNW 17.7 km/h 17.7 km/h 52 % 0.0 mm 863.0 W/m2 CLR
11:52 24.4 °C 14.2 °C 1018.2 hPa NW 3.7 km/h   53 % 0.0 mm 868.0 W/m2 CLR
11:57 24.6 °C 14.1 °C 1018.2 hPa NW 13.0 km/h   52 % 0.0 mm 408.0 W/m2 CLR
12:02 25.0 °C 14.2 °C 1017.8 hPa West 9.7 km/h 9.7 km/h 51 % 0.0 mm 940.0 W/m2 CLR
12:07 25.3 °C 14.2 °C 1017.8 hPa NNW 11.1 km/h 11.1 km/h 50 % 0.0 mm 983.0 W/m2 CLR
12:12 25.2 °C 14.1 °C 1018.5 hPa NW 14.8 km/h 14.8 km/h 50 % 0.0 mm 294.0 W/m2 CLR
12:17 25.3 °C 14.2 °C 1017.8 hPa NNW 8.0 km/h 8.0 km/h 50 % 0.0 mm 294.0 W/m2 CLR
12:22 25.7 °C 14.2 °C 1017.8 hPa NW 9.3 km/h 9.3 km/h 49 % 0.0 mm 940.0 W/m2 CLR
12:27 25.7 °C 14.2 °C 1017.8 hPa NNE 7.4 km/h 7.4 km/h 49 % 0.0 mm 942.0 W/m2 CLR
12:32 26.0 °C 14.4 °C 1017.8 hPa North 18.5 km/h 18.5 km/h 49 % 0.0 mm 828.0 W/m2 CLR
12:37 26.1 °C 14.2 °C 1017.8 hPa NNE 3.7 km/h 4.5 km/h 48 % 0.0 mm 550.0 W/m2 CLR
12:42 26.1 °C 14.2 °C 1018.2 hPa North 11.1 km/h 11.1 km/h 48 % 0.0 mm 258.0 W/m2 CLR
12:47 25.9 °C 14.4 °C 1017.8 hPa NNE 16.7 km/h 16.7 km/h 49 % 0.0 mm 868.0 W/m2 CLR
12:52 26.1 °C 14.2 °C 1017.8 hPa North 16.7 km/h 16.7 km/h 48 % 0.0 mm 316.0 W/m2 CLR
12:57 26.0 °C 14.4 °C 1017.8 hPa North 9.3 km/h 9.3 km/h 49 % 0.0 mm 988.0 W/m2 CLR
13:02 26.2 °C 14.3 °C 1017.8 hPa NNE 13.0 km/h 13.0 km/h 48 % 0.0 mm 953.0 W/m2 CLR
13:07 26.4 °C 14.8 °C 1017.8 hPa Calm     49 % 0.0 mm 868.0 W/m2 CLR
13:12 26.7 °C 14.8 °C 1017.8 hPa NW 11.3 km/h 11.3 km/h 48 % 0.0 mm 958.0 W/m2 CLR
13:17 26.7 °C 14.4 °C 1017.5 hPa Calm     47 % 0.0 mm 476.0 W/m2 CLR
13:22 27.0 °C 14.7 °C 1017.8 hPa NE 9.3 km/h 9.3 km/h 47 % 0.0 mm 946.0 W/m2 CLR
13:27 27.2 °C 14.9 °C 1017.5 hPa Calm     47 % 0.0 mm 965.0 W/m2 CLR
13:32 27.4 °C 14.7 °C 1017.5 hPa West 13.0 km/h 13.0 km/h 46 % 0.0 mm 930.0 W/m2 CLR
13:37 27.4 °C 14.7 °C 1017.5 hPa West 1.9 km/h 4.5 km/h 46 % 0.0 mm 944.0 W/m2 CLR
13:42 27.6 °C 14.9 °C 1017.5 hPa West 9.3 km/h 9.3 km/h 46 % 0.0 mm 940.0 W/m2 CLR
13:47 27.8 °C 14.8 °C 1017.5 hPa Calm     45 % 0.0 mm 949.0 W/m2 CLR
13:52 28.1 °C 15.1 °C 1017.2 hPa Calm     45 % 0.0 mm 930.0 W/m2 CLR
13:57 28.3 °C 14.8 °C 1017.2 hPa Calm     44 % 0.0 mm 946.0 W/m2 CLR
14:02 28.5 °C 15.4 °C 1017.2 hPa Calm     45 % 0.0 mm 939.0 W/m2 CLR
14:07 28.6 °C 14.8 °C 1016.8 hPa NE 9.3 km/h 9.3 km/h 43 % 0.0 mm 928.0 W/m2 CLR
14:12 28.4 °C 15.0 °C 1016.8 hPa North 5.6 km/h 5.6 km/h 44 % 0.0 mm 926.0 W/m2 CLR
14:17 28.6 °C 15.2 °C 1016.8 hPa Calm     44 % 0.0 mm 944.0 W/m2 CLR
14:22 28.8 °C 14.9 °C 1016.8 hPa Calm     43 % 0.0 mm 923.0 W/m2 CLR
14:27 28.8 °C 15.0 °C 1016.8 hPa Calm     43 % 0.0 mm 909.0 W/m2 CLR
14:32 28.9 °C 15.1 °C 1016.5 hPa Calm     43 % 0.0 mm 953.0 W/m2 CLR
14:37 29.0 °C 15.2 °C 1016.5 hPa Calm     43 % 0.0 mm 918.0 W/m2 CLR
14:42 29.3 °C 15.4 °C 1016.5 hPa Calm     43 % 0.0 mm 895.0 W/m2 CLR
14:43 29.3 °C 15.4 °C 1016.5 hPa Calm     43 % 0.0 mm 893.0 W/m2 CLR
14:48 29.4 °C 15.5 °C 1016.5 hPa ESE 1.6 km/h   43 % 0.0 mm 900.0 W/m2 CLR
14:53 29.5 °C 15.6 °C 1016.5 hPa NNE 7.4 km/h 7.4 km/h 43 % 0.0 mm 884.0 W/m2 CLR
14:58 29.8 °C 15.2 °C 1016.1 hPa NNE 9.7 km/h 9.7 km/h 41 % 0.0 mm 879.0 W/m2 CLR
15:03 30.0 °C 15.3 °C 1016.1 hPa ENE 9.3 km/h 9.3 km/h 41 % 0.0 mm 879.0 W/m2 CLR
15:08 29.9 °C 15.2 °C 1016.1 hPa ENE 9.3 km/h 9.3 km/h 41 % 0.0 mm 870.0 W/m2 CLR
15:13 29.9 °C 15.2 °C 1016.1 hPa NE 11.1 km/h 11.1 km/h 41 % 0.0 mm 868.0 W/m2 CLR
15:18 30.2 °C 15.5 °C 1016.1 hPa East 12.9 km/h 12.9 km/h 41 % 0.0 mm 867.0 W/m2 CLR
15:23 30.2 °C 15.5 °C 1016.1 hPa NNW 11.1 km/h 11.1 km/h 41 % 0.0 mm 856.0 W/m2 CLR
15:28 30.6 °C 15.4 °C 1015.8 hPa North 8.0 km/h 8.0 km/h 40 % 0.0 mm 851.0 W/m2 CLR
15:33 30.8 °C 15.2 °C 1015.8 hPa North 7.4 km/h 7.4 km/h 39 % 0.0 mm 847.0 W/m2 CLR
15:38 30.9 °C 15.7 °C 1015.8 hPa Calm     40 % 0.0 mm 833.0 W/m2 CLR
15:43 31.1 °C 15.5 °C 1015.8 hPa ENE 5.6 km/h 5.6 km/h 39 % 0.0 mm 831.0 W/m2 CLR
15:48 31.3 °C 15.7 °C 1015.5 hPa Calm     39 % 0.0 mm 824.0 W/m2 CLR
15:53 31.6 °C 15.5 °C 1015.5 hPa NE 11.1 km/h 11.1 km/h 38 % 0.0 mm 816.0 W/m2 CLR
15:58 31.4 °C 15.4 °C 1015.5 hPa SE 1.9 km/h 1.9 km/h 38 % 0.0 mm 807.0 W/m2 CLR
16:03 31.6 °C 15.9 °C 1015.5 hPa NNE 1.9 km/h 1.9 km/h 39 % 0.0 mm 800.0 W/m2 CLR
16:06 31.7 °C 15.6 °C 1015.5 hPa NNE 7.4 km/h   38 % 0.0 mm 791.0 W/m2 CLR
16:08 31.8 °C 15.7 °C 1015.5 hPa ENE 5.6 km/h 5.6 km/h 38 % 0.0 mm 789.0 W/m2 CLR
16:13 32.0 °C 15.5 °C 1015.5 hPa Calm     37 % 0.0 mm 779.0 W/m2 CLR
16:18 31.9 °C 15.4 °C 1015.1 hPa Calm     37 % 0.0 mm 772.0 W/m2 CLR
16:23 31.9 °C 15.4 °C 1015.1 hPa Calm     37 % 0.0 mm 763.0 W/m2 CLR
16:28 32.2 °C 15.7 °C 1015.1 hPa North 12.9 km/h 12.9 km/h 37 % 0.0 mm 749.0 W/m2 CLR
16:33 32.2 °C 15.6 °C 1015.1 hPa NE 14.8 km/h 14.8 km/h 37 % 0.0 mm 740.0 W/m2 CLR
16:38 32.2 °C 15.6 °C 1015.1 hPa North 9.3 km/h 9.3 km/h 37 % 0.0 mm 729.0 W/m2 CLR
16:43 32.6 °C 16.0 °C 1014.8 hPa NW 11.1 km/h 11.1 km/h 37 % 0.0 mm 717.0 W/m2 CLR
16:48 32.8 °C 16.2 °C 1014.8 hPa NW 16.7 km/h 16.7 km/h 37 % 0.0 mm 707.0 W/m2 CLR
16:53 32.7 °C 15.7 °C 1014.8 hPa Calm     36 % 0.0 mm 701.0 W/m2 CLR
16:58 32.7 °C 15.7 °C 1014.8 hPa North 11.1 km/h 11.1 km/h 36 % 0.0 mm 689.0 W/m2 CLR
17:03 32.7 °C 15.7 °C 1014.8 hPa North 16.7 km/h 16.7 km/h 36 % 0.0 mm 677.0 W/m2 CLR
17:08 32.8 °C 15.7 °C 1014.8 hPa Calm     36 % 0.0 mm 661.0 W/m2 CLR
17:13 33.0 °C 15.9 °C 1014.4 hPa NE 3.7 km/h 3.7 km/h 36 % 0.0 mm 649.0 W/m2 CLR
17:18 33.1 °C 16.1 °C 1014.8 hPa Calm   0.8 km/h 36 % 0.0 mm 633.0 W/m2 CLR
17:23 33.3 °C 15.3 °C 1014.4 hPa NNE 13.0 km/h 13.0 km/h 34 % 0.0 mm 624.0 W/m2 CLR
17:28 33.1 °C 15.2 °C 1014.4 hPa NNE 13.0 km/h 13.0 km/h 34 % 0.0 mm 615.0 W/m2 CLR
17:33 32.8 °C 15.3 °C 1014.4 hPa ENE 11.3 km/h 11.3 km/h 35 % 0.0 mm 598.0 W/m2 CLR
17:38 32.6 °C 15.6 °C 1014.4 hPa NNW 8.0 km/h 8.0 km/h 36 % 0.0 mm 587.0 W/m2 CLR
17:43 32.9 °C 15.4 °C 1014.4 hPa NW 11.1 km/h 11.1 km/h 35 % 0.0 mm 575.0 W/m2 CLR
17:48 32.9 °C 15.4 °C 1014.4 hPa NW 1.9 km/h 1.9 km/h 35 % 0.0 mm 557.0 W/m2 CLR
17:53 33.2 °C 15.2 °C 1014.4 hPa NNW 5.6 km/h 5.6 km/h 34 % 0.0 mm 543.0 W/m2 CLR
17:58 33.2 °C 14.7 °C 1014.4 hPa NNW 16.1 km/h 16.1 km/h 33 % 0.0 mm 531.0 W/m2 CLR
18:03 32.8 °C 14.9 °C 1014.1 hPa North 11.1 km/h 11.1 km/h 34 % 0.0 mm 519.0 W/m2 CLR
18:08 32.8 °C 14.8 °C 1014.1 hPa Calm     34 % 0.0 mm 504.0 W/m2 CLR
18:13 32.9 °C 14.9 °C 1014.1 hPa North 11.1 km/h 11.1 km/h 34 % 0.0 mm 487.0 W/m2 CLR
18:18 32.9 °C 14.6 °C 1014.1 hPa NNE 13.0 km/h 13.0 km/h 33 % 0.0 mm 475.0 W/m2 CLR
18:23 32.8 °C 14.4 °C 1014.1 hPa North 18.5 km/h 18.5 km/h 33 % 0.0 mm 457.0 W/m2 CLR
18:28 32.8 °C 14.4 °C 1014.1 hPa NNE 13.0 km/h 13.0 km/h 33 % 0.0 mm 446.0 W/m2 CLR
18:33 32.7 °C 14.3 °C 1014.1 hPa NE 14.8 km/h 14.8 km/h 33 % 0.0 mm 427.0 W/m2 CLR
18:38 32.7 °C 14.3 °C 1014.1 hPa NE 11.1 km/h 11.1 km/h 33 % 0.0 mm 413.0 W/m2 CLR
18:43 32.7 °C 14.3 °C 1013.8 hPa NNE 3.2 km/h 3.7 km/h 33 % 0.0 mm 399.0 W/m2 CLR
18:48 32.9 °C 14.1 °C 1014.1 hPa NNW 11.1 km/h 11.1 km/h 32 % 0.0 mm 383.0 W/m2 CLR
18:53 32.8 °C 13.9 °C 1013.8 hPa NNE 9.7 km/h 9.7 km/h 32 % 0.0 mm 366.0 W/m2 CLR
18:58 32.7 °C 13.9 °C 1014.1 hPa NNE 11.1 km/h 11.1 km/h 32 % 0.0 mm 348.0 W/m2 CLR
19:03 32.8 °C 13.9 °C 1014.1 hPa NNE 13.0 km/h 13.0 km/h 32 % 0.0 mm 332.0 W/m2 CLR
19:09 32.7 °C 13.8 °C 1014.1 hPa NNE 14.8 km/h 14.8 km/h 32 % 0.0 mm 318.0 W/m2 CLR
19:14 32.6 °C 13.8 °C 1014.1 hPa NNW 11.1 km/h 11.1 km/h 32 % 0.0 mm 304.0 W/m2 CLR
19:19 32.5 °C 13.7 °C 1014.1 hPa North 9.3 km/h 9.3 km/h 32 % 0.0 mm 290.0 W/m2 CLR
19:24 32.4 °C 13.6 °C 1014.1 hPa North 14.8 km/h 14.8 km/h 32 % 0.0 mm 272.0 W/m2 CLR
19:29 32.4 °C 14.1 °C 1014.1 hPa NNW 5.6 km/h 5.6 km/h 33 % 0.0 mm 258.0 W/m2 CLR
19:34 32.5 °C 14.2 °C 1014.1 hPa North 5.6 km/h 10.9 km/h 33 % 0.0 mm 244.0 W/m2 CLR
19:39 32.3 °C 13.9 °C 1014.1 hPa NE 13.0 km/h 13.0 km/h 33 % 0.0 mm 230.0 W/m2 CLR
19:44 32.1 °C 14.3 °C 1014.1 hPa North 9.3 km/h 9.3 km/h 34 % 0.0 mm 213.0 W/m2 CLR
19:49 32.2 °C 13.8 °C 1014.1 hPa North 11.1 km/h 11.1 km/h 33 % 0.0 mm 199.0 W/m2 CLR
19:54 32.1 °C 14.3 °C 1014.1 hPa NNW 11.1 km/h 11.1 km/h 34 % 0.0 mm 183.0 W/m2 CLR
19:59 32.0 °C 14.2 °C 1014.1 hPa NNW 1.6 km/h   34 % 0.0 mm 171.0 W/m2 CLR
20:04 31.9 °C 13.7 °C 1014.1 hPa NNW 13.0 km/h 13.0 km/h 33 % 0.0 mm 153.0 W/m2 CLR
20:09 31.8 °C 14.0 °C 1014.1 hPa NNE 13.0 km/h 13.0 km/h 34 % 0.0 mm 137.0 W/m2 CLR
20:14 31.7 °C 13.9 °C 1014.1 hPa NNW 3.7 km/h 3.7 km/h 34 % 0.0 mm 123.0 W/m2 CLR
20:19 31.6 °C 13.8 °C 1014.4 hPa NNE 5.6 km/h 5.6 km/h 34 % 0.0 mm 111.0 W/m2 CLR
20:24 31.5 °C 13.7 °C 1014.4 hPa NNW 7.4 km/h 7.4 km/h 34 % 0.0 mm 98.0 W/m2 CLR
20:29 31.4 °C 13.7 °C 1014.4 hPa North 7.4 km/h 7.4 km/h 34 % 0.0 mm 84.0 W/m2 CLR
20:34 31.3 °C 13.6 °C 1014.4 hPa Calm     34 % 0.0 mm 74.0 W/m2 FEW
20:39 31.2 °C 13.5 °C 1014.4 hPa North 11.1 km/h 11.1 km/h 34 % 0.0 mm 65.0 W/m2 FEW
20:44 31.0 °C 13.3 °C 1014.4 hPa North 11.3 km/h 11.3 km/h 34 % 0.0 mm 56.0 W/m2 SCT
20:49 30.8 °C 13.2 °C 1014.4 hPa NNE 11.1 km/h 11.1 km/h 34 % 0.0 mm 44.0 W/m2 SCT
20:54 30.7 °C 13.1 °C 1014.4 hPa Calm     34 % 0.0 mm 39.0 W/m2 BKN
20:59 30.6 °C 13.4 °C 1014.4 hPa Calm     35 % 0.0 mm 32.0 W/m2 BKN
21:04 30.6 °C 13.8 °C 1014.4 hPa Calm     36 % 0.0 mm 26.0 W/m2 BKN
21:09 30.4 °C 13.2 °C 1014.4 hPa Calm     35 % 0.0 mm 21.0 W/m2 BKN
21:14 30.2 °C 13.5 °C 1014.4 hPa Calm     36 % 0.0 mm 18.0 W/m2 BKN
21:19 30.1 °C 13.3 °C 1014.8 hPa Calm     36 % 0.0 mm 12.0 W/m2 BKN
21:24 29.8 °C 13.6 °C 1014.8 hPa Calm     37 % 0.0 mm 9.0 W/m2 BKN
21:29 29.7 °C 13.4 °C 1014.8 hPa Calm     37 % 0.0 mm 7.0 W/m2 BKN
21:34 29.5 °C 13.7 °C 1014.8 hPa Calm     38 % 0.0 mm 0.0 W/m2 OVC
21:39 29.3 °C 13.9 °C 1014.8 hPa Calm     39 % 0.0 mm 0.0 W/m2 OVC
21:44 29.1 °C 13.7 °C 1014.8 hPa Calm     39 % 0.0 mm 0.0 W/m2 CLR
21:49 28.8 °C 13.8 °C 1014.8 hPa Calm     40 % 0.0 mm 0.0 W/m2 CLR
21:54 28.5 °C 13.6 °C 1014.8 hPa Calm     40 % 0.0 mm 0.0 W/m2 CLR
21:59 28.2 °C 14.1 °C 1014.8 hPa Calm     42 % 0.0 mm 0.0 W/m2 CLR
22:04 27.9 °C 13.8 °C 1014.8 hPa NW 3.7 km/h 3.7 km/h 42 % 0.0 mm 0.0 W/m2 CLR
22:09 27.7 °C 13.6 °C 1015.1 hPa WNW 13.0 km/h 13.0 km/h 42 % 0.0 mm 0.0 W/m2 CLR
22:14 27.8 °C 13.7 °C 1015.1 hPa NNW 7.4 km/h 7.4 km/h 42 % 0.0 mm 0.0 W/m2 CLR
22:19 27.7 °C 13.6 °C 1015.1 hPa NW 5.6 km/h 5.6 km/h 42 % 0.0 mm 0.0 W/m2 CLR
22:24 27.4 °C 13.4 °C 1015.5 hPa NW 5.6 km/h 5.6 km/h 42 % 0.0 mm 0.0 W/m2 CLR
22:29 27.4 °C 12.6 °C 1015.5 hPa NW 18.5 km/h 18.5 km/h 40 % 0.0 mm 0.0 W/m2 CLR
22:34 27.7 °C 12.5 °C 1015.5 hPa NW 11.1 km/h 11.1 km/h 39 % 0.0 mm 0.0 W/m2 CLR
22:39 27.7 °C 12.1 °C 1015.8 hPa NNW 7.4 km/h 7.4 km/h 38 % 0.0 mm 0.0 W/m2 CLR
22:44 27.6 °C 11.6 °C 1015.8 hPa NW 5.6 km/h 5.6 km/h 37 % 0.0 mm 0.0 W/m2 CLR
22:49 27.4 °C 11.4 °C 1015.8 hPa NNW 7.4 km/h 7.4 km/h 37 % 0.0 mm 0.0 W/m2 CLR
22:54 27.2 °C 11.6 °C 1015.8 hPa NW 16.1 km/h 16.1 km/h 38 % 0.0 mm 0.0 W/m2 CLR
22:59 26.9 °C 11.4 °C 1016.1 hPa WNW 14.8 km/h 14.8 km/h 38 % 0.0 mm 0.0 W/m2 CLR
23:04 26.7 °C 11.6 °C 1016.1 hPa NNW 22.5 km/h 22.5 km/h 39 % 0.0 mm 0.0 W/m2 CLR
23:09 26.4 °C 11.4 °C 1016.5 hPa NNW 13.0 km/h 13.0 km/h 39 % 0.0 mm 0.0 W/m2 CLR
23:14 26.2 °C 11.6 °C 1016.5 hPa NW 1.9 km/h 1.9 km/h 40 % 0.0 mm 0.0 W/m2 CLR
23:19 26.1 °C 11.4 °C 1016.5 hPa WNW 9.3 km/h   40 % 0.0 mm 0.0 W/m2 CLR
23:24 25.9 °C 11.6 °C 1016.8 hPa Calm     41 % 0.0 mm 0.0 W/m2 CLR
23:29 25.7 °C 11.8 °C 1016.8 hPa NNW 5.6 km/h   42 % 0.0 mm 0.0 W/m2 CLR
23:34 25.6 °C 11.7 °C 1016.8 hPa WNW 3.7 km/h 3.7 km/h 42 % 0.0 mm 0.0 W/m2 CLR
23:39 25.6 °C 11.7 °C 1016.8 hPa Calm     42 % 0.0 mm 0.0 W/m2 CLR
23:44 25.4 °C 11.6 °C 1016.8 hPa WNW 6.4 km/h   42 % 0.0 mm 0.0 W/m2 CLR
23:49 25.2 °C 11.7 °C 1017.2 hPa NNW 7.4 km/h 7.4 km/h 43 % 0.0 mm 0.0 W/m2 CLR
23:54 25.0 °C 11.6 °C 1017.2 hPa Calm     43 % 0.0 mm 0.0 W/m2 CLR
23:59 24.8 °C 11.7 °C 1017.2 hPa Calm     44 % 0.0 mm 0.0 W/m2 CLR
Lo Temps de Massalio
Compliments of Weather Underground - 1.25 mb